Terminal Aerodrome Forecast
Issued by NWS Quad Cities IA IL

Home | Current Version | Previous Version | Text Only | Print | Product List | Glossary On
Versions: 1 2 3 4 5 6 7 8 9 10 11 12 13 14 15 16 17 18 19 20 21 22 23 24 25 26 27 28
000
FTUS43 KDVN 282349
TAFDBQ
TAF
KDBQ 282349Z 2900/2924 16012G19KT P6SM BKN250
     FM290600 16008KT P6SM VCSH OVC100
     FM290800 16010KT 6SM -RA BR VCTS OVC040CB
     FM291100 18009KT 5SM -RA BR OVC030
     FM291500 20010KT P6SM SCT040 BKN120
     FM292200 21012KT P6SM VCTS BKN040CB=

USA.gov is the U.S. government's official web portal to all federal, state and local government web resources and services.